createdAt,value
2022-09-20T00:00:36.898Z,-71
2022-09-20T00:01:43.181Z,-71
2022-09-20T00:02:49.441Z,-71
2022-09-20T00:03:54.745Z,-72
2022-09-20T00:05:00.027Z,-72
2022-09-20T00:06:05.332Z,-71
2022-09-20T00:07:10.622Z,-71
2022-09-20T00:08:16.891Z,-74
2022-09-20T00:09:23.202Z,-72
2022-09-20T00:10:29.436Z,-71
2022-09-20T00:11:35.710Z,-72
2022-09-20T00:12:41.983Z,-71
2022-09-20T00:13:48.263Z,-73
2022-09-20T00:14:54.525Z,-73
2022-09-20T00:16:00.811Z,-71
2022-09-20T00:17:07.069Z,-71
2022-09-20T00:18:13.340Z,-73
2022-09-20T00:19:19.629Z,-72
2022-09-20T00:20:25.886Z,-73
2022-09-20T00:21:31.171Z,-72
2022-09-20T00:22:37.449Z,-71
2022-09-20T00:23:43.718Z,-73
2022-09-20T00:24:49.992Z,-72
2022-09-20T00:25:56.261Z,-73
2022-09-20T00:27:02.535Z,-73
2022-09-20T00:28:08.812Z,-73
2022-09-20T00:29:14.108Z,-73
2022-09-20T00:30:19.394Z,-74
2022-09-20T00:31:24.689Z,-72
2022-09-20T00:32:30.030Z,-73
2022-09-20T00:33:35.278Z,-71
2022-09-20T00:34:40.566Z,-72
2022-09-20T00:35:46.842Z,-71
2022-09-20T00:36:53.118Z,-73
2022-09-20T00:37:59.386Z,-73
2022-09-20T00:39:05.668Z,-73
2022-09-20T00:40:11.927Z,-71
2022-09-20T00:41:18.216Z,-74
2022-09-20T00:42:24.475Z,-73
2022-09-20T00:43:30.758Z,-74
2022-09-20T00:44:37.021Z,-75
2022-09-20T00:45:43.290Z,-74
2022-09-20T00:46:49.559Z,-72
2022-09-20T00:47:55.850Z,-72
2022-09-20T00:49:01.128Z,-74
2022-09-20T00:50:07.396Z,-73
2022-09-20T00:51:13.678Z,-74
2022-09-20T00:52:19.942Z,-73
2022-09-20T00:53:26.215Z,-72
2022-09-20T00:54:32.485Z,-72
2022-09-20T00:55:38.752Z,-73
2022-09-20T00:56:44.062Z,-73
2022-09-20T00:57:49.344Z,-75
2022-09-20T00:58:54.659Z,-73
2022-09-20T00:59:59.933Z,-72
2022-09-20T01:01:06.204Z,-72
2022-09-20T01:02:12.473Z,-72
2022-09-20T01:03:18.748Z,-74
2022-09-20T01:04:25.030Z,-72
2022-09-20T01:05:31.299Z,-74
2022-09-20T01:06:37.571Z,-74
2022-09-20T01:07:43.835Z,-73
2022-09-20T01:08:50.168Z,-75
2022-09-20T01:09:56.400Z,-73
2022-09-20T01:11:02.662Z,-74
2022-09-20T01:12:08.931Z,-74
2022-09-20T01:13:15.197Z,-71
2022-09-20T01:14:20.486Z,-74
2022-09-20T01:15:26.758Z,-75
2022-09-20T01:16:33.031Z,-74
2022-09-20T01:17:39.302Z,-74
2022-09-20T01:18:45.581Z,-74
2022-09-20T01:19:51.868Z,-75
2022-09-20T01:20:58.158Z,-75
2022-09-20T01:22:03.420Z,-73
2022-09-20T01:23:08.704Z,-75
2022-09-20T01:24:14.991Z,-75
2022-09-20T01:25:20.283Z,-74
2022-09-20T01:26:25.567Z,-75
2022-09-20T01:27:31.841Z,-75
2022-09-20T01:28:38.114Z,-74
2022-09-20T01:29:44.388Z,-74
2022-09-20T01:30:50.653Z,-71
2022-09-20T01:31:56.950Z,-76
2022-09-20T01:33:03.203Z,-75
2022-09-20T01:34:09.472Z,-73
2022-09-20T01:35:15.752Z,-73
2022-09-20T01:36:22.017Z,-74
2022-09-20T01:37:28.289Z,-75
2022-09-20T01:38:34.559Z,-75
2022-09-20T01:39:40.834Z,-75
2022-09-20T01:40:46.117Z,-75
2022-09-20T01:41:52.410Z,-74
2022-09-20T01:42:58.664Z,-75
2022-09-20T01:44:04.940Z,-74
2022-09-20T01:45:11.214Z,-74
2022-09-20T01:46:17.485Z,-75
2022-09-20T01:47:23.783Z,-75
2022-09-20T01:48:29.055Z,-75
2022-09-20T01:49:34.338Z,-75
2022-09-20T01:50:39.646Z,-75
2022-09-20T01:51:44.931Z,-75
2022-09-20T01:52:51.201Z,-73
2022-09-20T01:53:57.468Z,-74
2022-09-20T01:55:03.748Z,-75
2022-09-20T01:56:10.018Z,-74
2022-09-20T01:57:16.296Z,-75
2022-09-20T01:58:22.570Z,-74
2022-09-20T01:59:28.843Z,-75
2022-09-20T02:00:35.108Z,-78
2022-09-20T02:01:41.383Z,-74
2022-09-20T02:02:47.672Z,-75
2022-09-20T02:03:53.921Z,-75
2022-09-20T02:05:00.214Z,-75
2022-09-20T02:06:05.493Z,-75
2022-09-20T02:07:11.761Z,-74
2022-09-20T02:08:18.028Z,-74
2022-09-20T02:09:24.302Z,-75
2022-09-20T02:10:30.574Z,-74
2022-09-20T02:11:36.847Z,-74
2022-09-20T02:12:43.124Z,-75
2022-09-20T02:13:48.443Z,-73
2022-09-20T02:14:53.726Z,-75
2022-09-20T02:15:59.053Z,-74
2022-09-20T02:17:04.297Z,-75
2022-09-20T02:18:10.564Z,-75
2022-09-20T02:19:16.840Z,-75
2022-09-20T02:20:23.112Z,-74
2022-09-20T02:21:29.392Z,-75
2022-09-20T02:22:35.659Z,-74
2022-09-20T02:23:41.929Z,-75
2022-09-20T02:24:48.197Z,-75
2022-09-20T02:25:54.516Z,-74
2022-09-20T02:27:00.743Z,-73
2022-09-20T02:28:07.052Z,-75
2022-09-20T02:29:13.314Z,-75
2022-09-20T02:30:19.577Z,-73
2022-09-20T02:31:24.849Z,-73
2022-09-20T02:32:31.124Z,-74
2022-09-20T02:33:37.394Z,-73
2022-09-20T02:34:43.668Z,-75
2022-09-20T02:35:49.955Z,-75
2022-09-20T02:36:56.207Z,-75
2022-09-20T02:38:02.485Z,-74
2022-09-20T02:39:07.787Z,-75
2022-09-20T02:40:13.071Z,-75
2022-09-20T02:41:19.347Z,-74
2022-09-20T02:42:24.638Z,-75
2022-09-20T02:43:29.928Z,-75
2022-09-20T02:44:36.202Z,-75
2022-09-20T02:45:42.466Z,-74
2022-09-20T02:46:48.771Z,-75
2022-09-20T02:47:55.029Z,-75
2022-09-20T02:49:01.293Z,-75
2022-09-20T02:50:07.564Z,-75
2022-09-20T02:51:13.832Z,-75
2022-09-20T02:52:20.121Z,-74
2022-09-20T02:53:26.379Z,-74
2022-09-20T02:54:32.652Z,-74
2022-09-20T02:55:38.922Z,-75
2022-09-20T02:56:45.201Z,-75
2022-09-20T02:57:50.492Z,-75
2022-09-20T02:58:56.760Z,-75
2022-09-20T03:00:03.029Z,-78
2022-09-20T03:01:09.299Z,-75
2022-09-20T03:02:15.574Z,-73
2022-09-20T03:03:21.874Z,-74
2022-09-20T03:04:28.121Z,-74
2022-09-20T03:05:33.421Z,-75
2022-09-20T03:06:38.709Z,-75
2022-09-20T03:07:44.008Z,-75
2022-09-20T03:08:49.293Z,-74
2022-09-20T03:09:55.569Z,-75
2022-09-20T03:11:01.846Z,-72
2022-09-20T03:12:08.125Z,-75
2022-09-20T03:13:14.387Z,-75
2022-09-20T03:14:20.660Z,-75
2022-09-20T03:15:26.935Z,-74
2022-09-20T03:16:33.201Z,-74
2022-09-20T03:17:39.472Z,-75
2022-09-20T03:18:45.749Z,-74
2022-09-20T03:19:52.018Z,-75
2022-09-20T03:20:58.338Z,-74
2022-09-20T03:22:04.564Z,-75
2022-09-20T03:23:09.853Z,-68
2022-09-20T03:24:16.125Z,-75
2022-09-20T03:25:22.397Z,-75
2022-09-20T03:26:28.669Z,-75
2022-09-20T03:27:34.941Z,-76
2022-09-20T03:28:41.214Z,-74
2022-09-20T03:29:47.533Z,-75
2022-09-20T03:30:52.786Z,-75
2022-09-20T03:31:58.073Z,-75
2022-09-20T03:33:03.383Z,-72
2022-09-20T03:34:08.657Z,-74
2022-09-20T03:35:14.934Z,-75
2022-09-20T03:36:21.203Z,-75
2022-09-20T03:37:26.497Z,-74
2022-09-20T03:38:32.772Z,-73
2022-09-20T03:39:39.044Z,-75
2022-09-20T03:40:45.320Z,-75
2022-09-20T03:41:51.584Z,-75
2022-09-20T03:42:57.886Z,-74
2022-09-20T03:44:04.132Z,-75
2022-09-20T03:45:10.411Z,-74
2022-09-20T03:46:16.681Z,-75
2022-09-20T03:47:22.947Z,-75
2022-09-20T03:48:29.214Z,-75
2022-09-20T03:49:35.496Z,-75
2022-09-20T03:50:41.763Z,-74
2022-09-20T03:51:47.063Z,-75
2022-09-20T03:52:53.325Z,-75
2022-09-20T03:53:59.603Z,-74
2022-09-20T03:55:05.879Z,-74
2022-09-20T03:56:11.170Z,-73
2022-09-20T03:57:16.464Z,-75
2022-09-20T03:58:22.834Z,-75
2022-09-20T03:59:28.999Z,-74
2022-09-20T04:00:35.273Z,-73
2022-09-20T04:01:41.542Z,-75
2022-09-20T04:02:47.816Z,-74
2022-09-20T04:03:54.088Z,-74
2022-09-20T04:05:00.362Z,-75
2022-09-20T04:06:06.631Z,-75
2022-09-20T04:07:12.904Z,-75
2022-09-20T04:08:19.185Z,-75
2022-09-20T04:09:25.448Z,-75
2022-09-20T04:10:31.723Z,-72
2022-09-20T04:11:37.012Z,-75
2022-09-20T04:12:43.303Z,-75
2022-09-20T04:13:49.568Z,-74
2022-09-20T04:14:55.828Z,-75
2022-09-20T04:16:02.107Z,-75
2022-09-20T04:17:08.370Z,-75
2022-09-20T04:18:14.646Z,-74
2022-09-20T04:19:19.942Z,-73
2022-09-20T04:20:25.246Z,-75
2022-09-20T04:21:31.508Z,-75
2022-09-20T04:22:37.785Z,-75
2022-09-20T04:23:44.049Z,-74
2022-09-20T04:24:50.315Z,-73
2022-09-20T04:25:56.596Z,-75
2022-09-20T04:27:02.870Z,-75
2022-09-20T04:28:09.149Z,-75
2022-09-20T04:29:15.408Z,-73
2022-09-20T04:30:21.683Z,-73
2022-09-20T04:31:27.958Z,-75
2022-09-20T04:32:34.226Z,-74
2022-09-20T04:33:40.499Z,-75
2022-09-20T04:34:45.786Z,-75
2022-09-20T04:35:52.064Z,-75
2022-09-20T04:36:58.326Z,-73
2022-09-20T04:38:04.603Z,-75
2022-09-20T04:39:10.875Z,-72
2022-09-20T04:40:17.147Z,-75
2022-09-20T04:41:23.426Z,-74
2022-09-20T04:42:28.723Z,-74
2022-09-20T04:43:34.016Z,-74
2022-09-20T04:44:40.286Z,-72
2022-09-20T04:45:46.553Z,-75
2022-09-20T04:46:52.818Z,-75
2022-09-20T04:47:59.092Z,-74
2022-09-20T04:49:05.366Z,-75
2022-09-20T04:50:11.721Z,-75
2022-09-20T04:51:17.920Z,-75
2022-09-20T04:52:24.189Z,-75
2022-09-20T04:53:30.453Z,-73
2022-09-20T04:54:36.729Z,-75
2022-09-20T04:55:43.001Z,-75
2022-09-20T04:56:49.271Z,-73
2022-09-20T04:57:54.557Z,-75
2022-09-20T04:59:00.897Z,-75
2022-09-20T05:00:07.118Z,-74
2022-09-20T05:01:13.372Z,-75
2022-09-20T05:02:19.654Z,-75
2022-09-20T05:03:25.927Z,-73
2022-09-20T05:04:32.190Z,-73
2022-09-20T05:05:37.572Z,-75
2022-09-20T05:06:42.814Z,-74
2022-09-20T05:07:48.081Z,-75
2022-09-20T05:08:53.372Z,-74
2022-09-20T05:09:58.669Z,-74
2022-09-20T05:11:03.960Z,-75
2022-09-20T05:12:10.226Z,-75
2022-09-20T05:13:15.528Z,-75
2022-09-20T05:14:20.862Z,-74
2022-09-20T05:15:27.087Z,-74
2022-09-20T05:16:33.366Z,-73
2022-09-20T05:17:39.639Z,-73
2022-09-20T05:18:45.908Z,-75
2022-09-20T05:19:52.177Z,-74
2022-09-20T05:20:58.451Z,-75
2022-09-20T05:22:04.759Z,-75
2022-09-20T05:23:10.995Z,-74
2022-09-20T05:24:17.266Z,-72
2022-09-20T05:25:23.547Z,-76
2022-09-20T05:26:29.811Z,-74
2022-09-20T05:27:36.090Z,-75
2022-09-20T05:28:41.370Z,-73
2022-09-20T05:29:47.639Z,-74
2022-09-20T05:30:53.914Z,-73
2022-09-20T05:32:00.200Z,-73
2022-09-20T05:33:06.460Z,-73
2022-09-20T05:34:12.753Z,-73
2022-09-20T05:35:19.006Z,-73
2022-09-20T05:36:24.307Z,-73
2022-09-20T05:37:29.594Z,-73
2022-09-20T05:38:34.892Z,-73
2022-09-20T05:39:40.178Z,-73
2022-09-20T05:40:46.452Z,-73
2022-09-20T05:41:52.736Z,-74
2022-09-20T05:42:58.990Z,-72
2022-09-20T05:44:05.270Z,-75
2022-09-20T05:45:11.548Z,-72
2022-09-20T05:46:17.815Z,-74
2022-09-20T05:47:24.085Z,-72
2022-09-20T05:48:30.376Z,-73
2022-09-20T05:49:36.632Z,-75
2022-09-20T05:50:42.898Z,-74
2022-09-20T05:51:49.171Z,-74
2022-09-20T05:52:55.447Z,-74
2022-09-20T05:54:00.736Z,-72
2022-09-20T05:55:07.009Z,-73
2022-09-20T05:56:13.281Z,-73
2022-09-20T05:57:19.549Z,-72
2022-09-20T05:58:25.822Z,-73
2022-09-20T05:59:32.130Z,-75
2022-09-20T06:00:38.395Z,-72
2022-09-20T06:01:43.669Z,-72
2022-09-20T06:02:48.953Z,-70
2022-09-20T06:03:54.273Z,-74
2022-09-20T06:04:59.541Z,-73
2022-09-20T06:06:05.821Z,-73
2022-09-20T06:07:12.091Z,-73
2022-09-20T06:08:18.432Z,-74
2022-09-20T06:09:24.647Z,-72
2022-09-20T06:10:30.903Z,-73
2022-09-20T06:11:37.265Z,-72
2022-09-20T06:12:43.598Z,-73
2022-09-20T06:13:49.782Z,-72
2022-09-20T06:14:56.000Z,-72
2022-09-20T06:16:02.261Z,-74
2022-09-20T06:17:08.539Z,-73
2022-09-20T06:18:14.808Z,-72
2022-09-20T06:19:20.095Z,-74
2022-09-20T06:20:26.365Z,-72
2022-09-20T06:21:32.670Z,-73
2022-09-20T06:22:38.945Z,-73
2022-09-20T06:23:45.193Z,-73
2022-09-20T06:24:51.454Z,-73
2022-09-20T06:25:57.732Z,-73
2022-09-20T06:27:03.024Z,-71
2022-09-20T06:28:08.323Z,-72
2022-09-20T06:29:14.591Z,-76
2022-09-20T06:30:20.863Z,-73
2022-09-20T06:31:27.164Z,-72
2022-09-20T06:32:33.406Z,-72
2022-09-20T06:33:39.707Z,-71
2022-09-20T06:34:44.976Z,-71
2022-09-20T06:35:50.287Z,-71
2022-09-20T06:36:56.557Z,-71
2022-09-20T06:38:02.807Z,-72
2022-09-20T06:39:09.085Z,-72
2022-09-20T06:40:15.349Z,-73
2022-09-20T06:41:21.626Z,-71
2022-09-20T06:42:27.907Z,-71
2022-09-20T06:43:34.171Z,-72
2022-09-20T06:44:40.445Z,-74
2022-09-20T06:45:46.710Z,-72
2022-09-20T06:46:53.021Z,-71
2022-09-20T06:47:59.275Z,-73
2022-09-20T06:49:05.535Z,-72
2022-09-20T06:50:10.817Z,-72
2022-09-20T06:51:17.096Z,-72
2022-09-20T06:52:23.376Z,-66
2022-09-20T06:53:29.640Z,-72
2022-09-20T06:54:35.917Z,-71
2022-09-20T06:55:42.181Z,-71
2022-09-20T06:56:48.457Z,-71
2022-09-20T06:57:53.749Z,-71
2022-09-20T06:58:59.047Z,-71
2022-09-20T07:00:04.348Z,-71
2022-09-20T07:01:09.622Z,-71
2022-09-20T07:02:15.901Z,-71
2022-09-20T07:03:22.168Z,-71
2022-09-20T07:04:28.460Z,-72
2022-09-20T07:05:34.719Z,-71
2022-09-20T07:06:40.993Z,-71
2022-09-20T07:07:47.259Z,-71
2022-09-20T07:08:53.530Z,-72
2022-09-20T07:09:59.803Z,-71
2022-09-20T07:11:06.081Z,-71
2022-09-20T07:12:12.344Z,-71
2022-09-20T07:13:18.629Z,-70
2022-09-20T07:14:24.896Z,-69
2022-09-20T07:15:30.179Z,-71
2022-09-20T07:16:36.455Z,-71
2022-09-20T07:17:42.722Z,-71
2022-09-20T07:18:48.019Z,-71
2022-09-20T07:19:54.400Z,-71
2022-09-20T07:21:00.667Z,-71
2022-09-20T07:22:06.837Z,-70
2022-09-20T07:23:12.139Z,-71
2022-09-20T07:24:17.419Z,-71
2022-09-20T07:25:22.718Z,-70
2022-09-20T07:26:28.003Z,-71
2022-09-20T07:27:34.276Z,-69
2022-09-20T07:28:40.558Z,-71
2022-09-20T07:29:46.830Z,-71
2022-09-20T07:30:53.096Z,-69
2022-09-20T07:31:59.397Z,-73
2022-09-20T07:33:05.650Z,-70
2022-09-20T07:34:11.912Z,-70
2022-09-20T07:35:18.183Z,-69
2022-09-20T07:36:24.463Z,-69
2022-09-20T07:37:30.736Z,-69
2022-09-20T07:38:37.028Z,-70
2022-09-20T07:39:43.274Z,-70
2022-09-20T07:40:48.554Z,-70
2022-09-20T07:41:54.929Z,-69
2022-09-20T07:43:01.100Z,-70
2022-09-20T07:44:07.373Z,-71
2022-09-20T07:45:13.788Z,-70
2022-09-20T07:46:19.916Z,-71
2022-09-20T07:47:26.223Z,-69
2022-09-20T07:48:32.463Z,-71
2022-09-20T07:49:38.736Z,-68
2022-09-20T07:50:45.013Z,-71
2022-09-20T07:51:51.278Z,-68
2022-09-20T07:52:57.582Z,-68
2022-09-20T07:54:03.830Z,-68
2022-09-20T07:55:09.123Z,-69
2022-09-20T07:56:15.382Z,-69
2022-09-20T07:57:21.655Z,-68
2022-09-20T07:58:27.930Z,-68
2022-09-20T07:59:34.201Z,-68
2022-09-20T08:00:40.471Z,-70
2022-09-20T08:01:46.774Z,-69
2022-09-20T08:02:53.024Z,-68
2022-09-20T08:03:59.321Z,-68
2022-09-20T08:05:05.557Z,-69
2022-09-20T08:06:11.834Z,-68
2022-09-20T08:07:18.135Z,-68
2022-09-20T08:08:24.381Z,-68
2022-09-20T08:09:29.659Z,-68
2022-09-20T08:10:35.939Z,-67
2022-09-20T08:11:42.205Z,-68
2022-09-20T08:12:48.486Z,-67
2022-09-20T08:13:54.754Z,-68
2022-09-20T08:15:01.027Z,-68
2022-09-20T08:16:07.298Z,-68
2022-09-20T08:17:13.577Z,-68
2022-09-20T08:18:19.839Z,-67
2022-09-20T08:19:26.109Z,-69
2022-09-20T08:20:32.389Z,-69
2022-09-20T08:21:38.672Z,-68
2022-09-20T08:22:44.932Z,-68
2022-09-20T08:23:50.224Z,-68
2022-09-20T08:24:56.495Z,-68
2022-09-20T08:26:02.765Z,-68
2022-09-20T08:27:09.052Z,-68
2022-09-20T08:28:15.309Z,-68
2022-09-20T08:29:21.607Z,-68
2022-09-20T08:30:27.880Z,-67
2022-09-20T08:31:34.127Z,-66
2022-09-20T08:32:40.395Z,-68
2022-09-20T08:33:46.675Z,-67
2022-09-20T08:34:52.967Z,-68
2022-09-20T08:35:59.225Z,-68
2022-09-20T08:37:05.485Z,-65
2022-09-20T08:38:10.782Z,-68
2022-09-20T08:39:17.092Z,-68
2022-09-20T08:40:23.316Z,-67
2022-09-20T08:41:29.591Z,-68
2022-09-20T08:42:35.893Z,-68
2022-09-20T08:43:42.158Z,-68
2022-09-20T08:44:48.433Z,-67
2022-09-20T08:45:54.684Z,-68
2022-09-20T08:47:00.947Z,-67
2022-09-20T08:48:07.241Z,-66
2022-09-20T08:49:13.528Z,-68
2022-09-20T08:50:19.772Z,-68
2022-09-20T08:51:26.065Z,-68
2022-09-20T08:52:31.335Z,-68
2022-09-20T08:53:37.592Z,-68
2022-09-20T08:54:43.868Z,-70
2022-09-20T08:55:50.143Z,-68
2022-09-20T08:56:56.409Z,-67
2022-09-20T08:58:01.718Z,-68
2022-09-20T08:59:07.006Z,-68
2022-09-20T09:00:13.281Z,-68
2022-09-20T09:01:19.550Z,-68
2022-09-20T09:02:24.846Z,-67
2022-09-20T09:03:30.141Z,-68
2022-09-20T09:04:36.440Z,-67
2022-09-20T09:05:42.694Z,-68
2022-09-20T09:06:48.950Z,-69
2022-09-20T09:07:55.235Z,-68
2022-09-20T09:09:01.489Z,-68
2022-09-20T09:10:07.775Z,-67
2022-09-20T09:11:14.038Z,-67
2022-09-20T09:12:20.303Z,-66
2022-09-20T09:13:26.582Z,-68
2022-09-20T09:14:32.854Z,-68
2022-09-20T09:15:39.127Z,-67
2022-09-20T09:16:45.414Z,-68
2022-09-20T09:17:50.690Z,-67
2022-09-20T09:18:56.963Z,-67
2022-09-20T09:20:03.231Z,-67
2022-09-20T09:21:09.529Z,-67
2022-09-20T09:22:15.780Z,-67
2022-09-20T09:23:22.048Z,-67
2022-09-20T09:24:28.327Z,-66
2022-09-20T09:25:33.647Z,-65
2022-09-20T09:26:38.919Z,-65
2022-09-20T09:27:44.207Z,-66
2022-09-20T09:28:49.499Z,-66
2022-09-20T09:29:55.762Z,-66
2022-09-20T09:31:02.039Z,-67
2022-09-20T09:32:08.310Z,-67
2022-09-20T09:33:14.594Z,-66
2022-09-20T09:34:20.851Z,-67
2022-09-20T09:35:27.168Z,-66
2022-09-20T09:36:33.470Z,-68
2022-09-20T09:37:39.669Z,-68
2022-09-20T09:38:45.945Z,-68
2022-09-20T09:39:52.214Z,-65
2022-09-20T09:40:58.484Z,-66
2022-09-20T09:42:04.763Z,-65
2022-09-20T09:43:10.048Z,-65
2022-09-20T09:44:16.331Z,-67
2022-09-20T09:45:22.696Z,-65
2022-09-20T09:46:28.961Z,-64
2022-09-20T09:47:35.183Z,-65
2022-09-20T09:48:41.564Z,-64
2022-09-20T09:49:47.769Z,-62
2022-09-20T09:50:53.030Z,-63
2022-09-20T09:51:59.350Z,-63
2022-09-20T09:53:04.549Z,-63
2022-09-20T09:54:09.834Z,-63
2022-09-20T09:55:15.144Z,-68
2022-09-20T09:56:21.421Z,-65
2022-09-20T09:57:27.664Z,-65
2022-09-20T09:58:33.942Z,-65
2022-09-20T09:59:40.232Z,-65
2022-09-20T10:00:46.480Z,-65
2022-09-20T10:01:52.757Z,-63
2022-09-20T10:02:59.028Z,-62
2022-09-20T10:04:05.360Z,-64
2022-09-20T10:05:11.680Z,-62
2022-09-20T10:06:17.846Z,-61
2022-09-20T10:07:24.121Z,-61
2022-09-20T10:08:30.391Z,-61
2022-09-20T10:09:35.688Z,-59
2022-09-20T10:10:41.951Z,-59
2022-09-20T10:11:48.226Z,-59
2022-09-20T10:12:54.491Z,-58
2022-09-20T10:14:00.791Z,-59
2022-09-20T10:15:07.045Z,-58
2022-09-20T10:16:13.307Z,-58
2022-09-20T10:17:19.610Z,-57
2022-09-20T10:18:25.855Z,-56
2022-09-20T10:19:32.142Z,-57
2022-09-20T10:20:37.423Z,-57
2022-09-20T10:21:42.717Z,-57
2022-09-20T10:22:49.003Z,-58
2022-09-20T10:23:55.253Z,-58
2022-09-20T10:25:01.556Z,-59
2022-09-20T10:26:07.881Z,-61
2022-09-20T10:27:13.103Z,-61
2022-09-20T10:28:18.384Z,-62
2022-09-20T10:29:24.658Z,-62
2022-09-20T10:30:30.929Z,-62
2022-09-20T10:31:37.209Z,-62
2022-09-20T10:32:43.521Z,-62
2022-09-20T10:33:49.746Z,-61
2022-09-20T10:34:56.074Z,-62
2022-09-20T10:36:02.332Z,-61
2022-09-20T10:37:08.571Z,-62
2022-09-20T10:38:14.861Z,-62
2022-09-20T10:39:21.111Z,-62
2022-09-20T10:40:27.431Z,-62
2022-09-20T10:41:33.654Z,-60
2022-09-20T10:42:38.965Z,-61
2022-09-20T10:43:45.213Z,-62
2022-09-20T10:44:51.581Z,-62
2022-09-20T10:45:57.754Z,-62
2022-09-20T10:47:04.023Z,-62
2022-09-20T10:48:10.298Z,-62
2022-09-20T10:49:16.694Z,-62
2022-09-20T10:50:21.935Z,-62
2022-09-20T10:51:27.224Z,-62
2022-09-20T10:52:33.485Z,-62
2022-09-20T10:53:38.748Z,-62
2022-09-20T10:54:44.013Z,-63
2022-09-20T10:55:50.388Z,-63
2022-09-20T10:56:56.564Z,-62
2022-09-20T10:58:02.830Z,-62
2022-09-20T10:59:09.114Z,-64
2022-09-20T11:00:14.398Z,-62
2022-09-20T11:01:20.671Z,-63
2022-09-20T11:02:26.941Z,-62
2022-09-20T11:03:33.211Z,-61
2022-09-20T11:04:39.513Z,-61
2022-09-20T11:05:45.788Z,-62
2022-09-20T11:06:52.037Z,-62
2022-09-20T11:07:58.302Z,-62
2022-09-20T11:09:04.583Z,-61
2022-09-20T11:10:10.887Z,-62
2022-09-20T11:11:17.125Z,-62
2022-09-20T11:12:23.405Z,-62
2022-09-20T11:13:29.662Z,-61
2022-09-20T11:14:34.958Z,-62
2022-09-20T11:15:41.401Z,-62
2022-09-20T11:16:46.547Z,-62
2022-09-20T11:17:51.815Z,-62
2022-09-20T11:18:58.082Z,-62
2022-09-20T11:20:03.386Z,-55
2022-09-20T11:21:08.679Z,-64
2022-09-20T11:22:14.947Z,-62
2022-09-20T11:23:21.211Z,-64
2022-09-20T11:24:27.523Z,-62
2022-09-20T11:25:33.760Z,-60
2022-09-20T11:26:40.030Z,-61
2022-09-20T11:27:46.305Z,-62
2022-09-20T11:28:52.588Z,-62
2022-09-20T11:29:58.854Z,-62
2022-09-20T11:31:06.238Z,-60
2022-09-20T11:32:11.436Z,-62
2022-09-20T11:33:17.667Z,-63
2022-09-20T11:34:23.936Z,-62
2022-09-20T11:35:30.213Z,-61
2022-09-20T11:36:35.496Z,-62
2022-09-20T11:37:41.770Z,-62
2022-09-20T11:38:48.045Z,-62
2022-09-20T11:39:54.416Z,-62
2022-09-20T11:41:00.584Z,-62
2022-09-20T11:42:06.857Z,-61
2022-09-20T11:43:12.151Z,-64
2022-09-20T11:44:17.442Z,-63
2022-09-20T11:45:22.750Z,-61
2022-09-20T11:46:29.094Z,-62
2022-09-20T11:47:34.308Z,-62
2022-09-20T11:48:40.571Z,-62
2022-09-20T11:49:46.850Z,-62
2022-09-20T11:50:53.121Z,-61
2022-09-20T11:51:59.395Z,-60
2022-09-20T11:53:05.660Z,-60
2022-09-20T11:54:11.937Z,-62
2022-09-20T11:55:18.303Z,-59
2022-09-20T11:56:24.519Z,-61
2022-09-20T11:57:30.763Z,-62
2022-09-20T11:58:37.026Z,-62
2022-09-20T11:59:43.301Z,-62
2022-09-20T12:00:49.565Z,-62
2022-09-20T12:01:54.855Z,-62
2022-09-20T12:03:01.125Z,-61
2022-09-20T12:04:07.402Z,-62
2022-09-20T12:05:13.669Z,-60
2022-09-20T12:06:19.954Z,-61
2022-09-20T12:07:26.218Z,-61
2022-09-20T12:08:31.553Z,-61
2022-09-20T12:09:36.865Z,-60
2022-09-20T12:10:42.109Z,-61
2022-09-20T12:11:47.391Z,-59
2022-09-20T12:12:53.658Z,-59
2022-09-20T12:13:59.933Z,-62
2022-09-20T12:15:06.203Z,-61
2022-09-20T12:16:12.477Z,-61
2022-09-20T12:17:18.747Z,-57
2022-09-20T12:18:25.037Z,-59
2022-09-20T12:19:31.304Z,-60
2022-09-20T12:20:37.577Z,-60
2022-09-20T12:21:43.837Z,-59
2022-09-20T12:22:50.105Z,-59
2022-09-20T12:23:56.385Z,-59
2022-09-20T12:25:02.652Z,-58
2022-09-20T12:26:07.941Z,-56
2022-09-20T12:27:14.211Z,-56
2022-09-20T12:28:20.507Z,-59
2022-09-20T12:29:26.754Z,-56
2022-09-20T12:30:33.039Z,-57
2022-09-20T12:31:39.303Z,-56
2022-09-20T12:32:45.603Z,-56
2022-09-20T12:33:50.973Z,-56
2022-09-20T12:34:56.342Z,-56
2022-09-20T12:36:02.441Z,-57
2022-09-20T12:37:07.727Z,-56
2022-09-20T12:38:13.047Z,-56
2022-09-20T12:39:19.293Z,-56
2022-09-20T12:40:25.567Z,-56
2022-09-20T12:41:31.848Z,-56
2022-09-20T12:42:38.109Z,-57
2022-09-20T12:43:44.381Z,-56
2022-09-20T12:44:50.649Z,-59
2022-09-20T12:45:56.924Z,-59
2022-09-20T12:47:03.206Z,-58
2022-09-20T12:48:09.471Z,-58
2022-09-20T12:49:15.765Z,-59
2022-09-20T12:50:22.015Z,-59
2022-09-20T12:51:28.298Z,-59
2022-09-20T12:52:33.574Z,-59
2022-09-20T12:53:39.845Z,-59
2022-09-20T12:54:46.117Z,-58
2022-09-20T12:55:52.384Z,-59
2022-09-20T12:56:58.657Z,-57
2022-09-20T12:58:04.995Z,-57
2022-09-20T12:59:11.232Z,-58
2022-09-20T13:00:16.514Z,-59
2022-09-20T13:01:21.796Z,-59
2022-09-20T13:02:27.130Z,-58
2022-09-20T13:03:32.388Z,-58
2022-09-20T13:04:38.651Z,-59
2022-09-20T13:05:44.927Z,-58
2022-09-20T13:06:51.207Z,-58
2022-09-20T13:07:57.479Z,-59
2022-09-20T13:09:03.772Z,-59
2022-09-20T13:10:10.005Z,-57
2022-09-20T13:11:16.287Z,-56
2022-09-20T13:12:22.559Z,-57
2022-09-20T13:13:28.835Z,-58
2022-09-20T13:14:35.162Z,-56
2022-09-20T13:15:41.483Z,-57
2022-09-20T13:16:47.823Z,-56
2022-09-20T13:17:52.943Z,-54
2022-09-20T13:18:59.201Z,-54
2022-09-20T13:20:05.496Z,-53
2022-09-20T13:21:11.740Z,-53
2022-09-20T13:22:18.018Z,-55
2022-09-20T13:23:24.299Z,-56
2022-09-20T13:24:30.563Z,-54
2022-09-20T13:25:35.863Z,-55
2022-09-20T13:26:41.150Z,-54
2022-09-20T13:27:47.416Z,-56
2022-09-20T13:28:52.733Z,-54
2022-09-20T13:29:58.006Z,-53
2022-09-20T13:31:04.280Z,-55
2022-09-20T13:32:10.548Z,-53
2022-09-20T13:33:16.820Z,-53
2022-09-20T13:34:23.110Z,-53
2022-09-20T13:35:29.369Z,-52
2022-09-20T13:36:35.643Z,-50
2022-09-20T13:37:41.908Z,-51
2022-09-20T13:38:48.188Z,-51
2022-09-20T13:39:54.457Z,-53
2022-09-20T13:41:00.746Z,-52
2022-09-20T13:42:07.021Z,-53
2022-09-20T13:43:13.266Z,-53
2022-09-20T13:44:18.581Z,-52
2022-09-20T13:45:24.838Z,-53
2022-09-20T13:46:31.104Z,-53
2022-09-20T13:47:37.374Z,-53
2022-09-20T13:48:43.654Z,-54
2022-09-20T13:49:49.918Z,-53
2022-09-20T13:50:56.193Z,-55
2022-09-20T13:52:01.519Z,-53
2022-09-20T13:53:06.831Z,-56
2022-09-20T13:54:12.081Z,-56
2022-09-20T13:55:17.384Z,-57
2022-09-20T13:56:23.646Z,-56
2022-09-20T13:57:29.950Z,-57
2022-09-20T13:58:36.245Z,-56
2022-09-20T13:59:42.491Z,-57
2022-09-20T14:00:48.757Z,-57
2022-09-20T14:01:55.011Z,-58
2022-09-20T14:03:01.268Z,-56
2022-09-20T14:04:07.544Z,-56
2022-09-20T14:05:13.818Z,-57
2022-09-20T14:06:20.089Z,-59
2022-09-20T14:07:26.365Z,-59
2022-09-20T14:08:32.639Z,-57
2022-09-20T14:09:37.918Z,-56
2022-09-20T14:10:44.194Z,-58
2022-09-20T14:11:50.471Z,-58
2022-09-20T14:12:56.738Z,-58
2022-09-20T14:14:03.006Z,-58
2022-09-20T14:15:09.278Z,-59
2022-09-20T14:16:15.562Z,-57
2022-09-20T14:17:20.851Z,-59
2022-09-20T14:18:26.146Z,-58
2022-09-20T14:19:32.440Z,-57
2022-09-20T14:20:38.686Z,-56
2022-09-20T14:21:44.992Z,-58
2022-09-20T14:22:51.227Z,-56
2022-09-20T14:23:57.496Z,-56
2022-09-20T14:25:03.780Z,-57
2022-09-20T14:26:10.039Z,-57
2022-09-20T14:27:16.345Z,-57
2022-09-20T14:28:22.593Z,-57
2022-09-20T14:29:28.855Z,-56
2022-09-20T14:30:35.132Z,-57
2022-09-20T14:31:41.543Z,-57
2022-09-20T14:32:46.695Z,-57
2022-09-20T14:33:53.118Z,-61
2022-09-20T14:34:59.245Z,-57
2022-09-20T14:36:05.534Z,-57
2022-09-20T14:37:11.777Z,-57
2022-09-20T14:38:18.056Z,-59
2022-09-20T14:39:24.336Z,-59
2022-09-20T14:40:29.626Z,-58
2022-09-20T14:41:34.915Z,-58
2022-09-20T14:42:41.230Z,-57
2022-09-20T14:43:46.509Z,-59
2022-09-20T14:44:51.784Z,-59
2022-09-20T14:45:58.048Z,-60
2022-09-20T14:47:04.323Z,-59
2022-09-20T14:48:10.603Z,-59
2022-09-20T14:49:15.888Z,-59
2022-09-20T14:50:21.179Z,-59
2022-09-20T14:51:27.474Z,-59
2022-09-20T14:52:33.727Z,-59
2022-09-20T14:53:40.082Z,-59
2022-09-20T14:54:46.268Z,-59
2022-09-20T14:55:52.537Z,-60
2022-09-20T14:56:58.814Z,-60
2022-09-20T14:58:05.084Z,-60
2022-09-20T14:59:11.360Z,-59
2022-09-20T15:00:17.628Z,-59
2022-09-20T15:01:23.915Z,-59
2022-09-20T15:02:30.175Z,-59
2022-09-20T15:03:36.447Z,-59
2022-09-20T15:04:41.729Z,-59
2022-09-20T15:05:48.009Z,-58
2022-09-20T15:06:54.274Z,-59
2022-09-20T15:08:00.551Z,-60
2022-09-20T15:09:06.819Z,-60
2022-09-20T15:10:13.090Z,-59